F/V Kab David 3 — FHZU — position and weather

sailwx.info

Track history (hours):
 
Tides and Currents Weather Stations Pressure Air Temp Water Temp Dewpoint Dewpoint Depression Visibility Wind Speed Wind Dir Waves Ship Positions

F/V Kab David 3

Last reported at 2018-Jun-21 23:30 UTC. Time now 2018-Jun-21 23:47 UTC.
Position N 47°18' W 002°31'.

Length 15 m.

Type: Other ship. MMSI: 228813000.

Date/timePositionNaut miles runAvg speedWind from/ knotsBaromVisibWave heightAir tempDewpointWater temp
2018-Jun-21 23:30N 47°18' W 002°31'0 0.0
2018-Jun-21 22:57N 47°18' W 002°31'0 0.0
2018-Jun-21 22:30N 47°18' W 002°31'0 0.0
2018-Jun-21 21:59N 47°18' W 002°31'0 0.0
2018-Jun-21 21:30N 47°18' W 002°31'0 0.0
2018-Jun-21 21:00N 47°18' W 002°31'0 0.0
2018-Jun-21 20:30N 47°18' W 002°31'0 0.0
2018-Jun-21 19:59N 47°18' W 002°31'0 0.0
2018-Jun-21 19:30N 47°18' W 002°31'0 0.0
2018-Jun-21 17:54N 47°18' W 002°31'0 0.0
2018-Jun-21 17:27N 47°18' W 002°31'0 0.0
2018-Jun-21 16:59N 47°18' W 002°31'0 0.0
2018-Jun-21 16:29N 47°18' W 002°31'0 0.0
2018-Jun-21 16:00N 47°18' W 002°31'0 0.3
2018-Jun-21 15:30N 47°18' W 002°31'14 5.8
2018-Jun-21 13:03N 47°10' W 002°48'5 2.5
2018-Jun-21 11:11N 47°05' W 002°48'1 2.5
2018-Jun-21 10:40N 47°04' W 002°49'2 4.2
2018-Jun-21 10:07N 47°02' W 002°50'1 1.5
2018-Jun-21 09:34N 47°03' W 002°50'1 9.4
2018-Jun-21 09:26N 47°02' W 002°49'4 9.5
2018-Jun-21 08:59N 47°03' W 002°43'5 9.0
2018-Jun-21 08:29N 47°04' W 002°36'4 7.4
2018-Jun-21 07:59N 47°04' W 002°31'0 0.4
2018-Jun-21 07:30N 47°04' W 002°30'1 1.2
2018-Jun-21 06:53N 47°05' W 002°29'1 0.7
2018-Jun-21 05:58N 47°05' W 002°29'0 0.5
2018-Jun-21 05:30N 47°05' W 002°28'2 1.8
2018-Jun-21 04:40N 47°06' W 002°30'2 8.5
2018-Jun-21 04:27N 47°08' W 002°31'1 2.8
2018-Jun-21 04:00N 47°09' W 002°31'0 0.4
2018-Jun-21 03:30N 47°09' W 002°31'2 4.8
2018-Jun-21 03:00N 47°12' W 002°32'5 8.9
2018-Jun-21 02:30N 47°16' W 002°34'3 5.9
2018-Jun-21 02:00N 47°18' W 002°31'0 0.9
2018-Jun-21 01:30N 47°18' W 002°31'0 0.0
2018-Jun-21 01:00N 47°18' W 002°31'0 0.0
2018-Jun-21 00:30N 47°18' W 002°31'0 0.0
2018-Jun-21 00:00N 47°18' W 002°31'0 0.0
2018-Jun-20 23:30N 47°18' W 002°31'0 0.0
2018-Jun-20 23:00N 47°18' W 002°31'0 0.0
2018-Jun-20 22:30N 47°18' W 002°31'0 0.0
2018-Jun-20 22:00N 47°18' W 002°31'0 0.0
2018-Jun-20 21:28N 47°18' W 002°31'0 0.0
2018-Jun-20 21:00N 47°18' W 002°31'0 0.0
2018-Jun-20 20:30N 47°18' W 002°31'0 0.0
2018-Jun-20 19:59N 47°18' W 002°31'0 0.0
2018-Jun-20 19:30N 47°18' W 002°31'0 0.0
2018-Jun-20 19:00N 47°18' W 002°31'0 0.0
2018-Jun-20 18:30N 47°18' W 002°31'0 0.0
2018-Jun-20 18:00N 47°18' W 002°31'0 0.0
2018-Jun-20 17:30N 47°18' W 002°31'0 0.0
2018-Jun-20 17:00N 47°18' W 002°31'0 0.0
2018-Jun-20 16:30N 47°18' W 002°31'0 0.0
2018-Jun-20 16:00N 47°18' W 002°31'0 0.0
2018-Jun-20 15:30N 47°18' W 002°31'0 0.0
2018-Jun-20 15:00N 47°18' W 002°31'0 0.0
2018-Jun-20 14:30N 47°18' W 002°31'0 0.2
2018-Jun-20 13:59N 47°18' W 002°31'21 5.7
2018-Jun-20 10:11N 47°02' W 002°52'0 0.6
2018-Jun-20 09:51N 47°02' W 002°51'1 0.8
2018-Jun-20 08:51N 47°02' W 002°51'1 1.9
2018-Jun-20 08:26N 47°02' W 002°50'1 2.0
2018-Jun-20 07:48N 47°03' W 002°49'1 2.7
2018-Jun-20 07:27N 47°04' W 002°49'2 3.9
2018-Jun-20 07:00N 47°06' W 002°49'1 1.7
2018-Jun-20 06:28N 47°07' W 002°49'2 4.6
2018-Jun-20 06:00N 47°09' W 002°48'1 1.5
2018-Jun-20 05:30N 47°10' W 002°48'1 1.3
2018-Jun-20 04:57N 47°10' W 002°47'2 4.0
2018-Jun-20 04:30N 47°12' W 002°46'1 1.2
2018-Jun-20 04:00N 47°12' W 002°46'1 1.7
2018-Jun-20 03:18N 47°13' W 002°45'1 2.3
2018-Jun-20 03:00N 47°14' W 002°44'5 9.6
2018-Jun-20 02:30N 47°16' W 002°38'5 9.2
2018-Jun-20 02:00N 47°19' W 002°32'1 2.6
2018-Jun-20 01:30N 47°18' W 002°31'0 0.0
2018-Jun-20 00:59N 47°18' W 002°31'0 0.0
2018-Jun-20 00:28N 47°18' W 002°31'0 0.0
2018-Jun-20 00:00N 47°18' W 002°31'0 0.0
2018-Jun-19 23:29N 47°18' W 002°31'0 0.0
2018-Jun-19 23:00N 47°18' W 002°31'0 0.0
2018-Jun-19 22:30N 47°18' W 002°31'0 0.0
2018-Jun-19 22:00N 47°18' W 002°31'0 0.0
2018-Jun-19 21:30N 47°18' W 002°31'0 0.0
2018-Jun-19 20:59N 47°18' W 002°31'0 0.0
2018-Jun-19 20:30N 47°18' W 002°31'0 0.0
2018-Jun-19 20:00N 47°18' W 002°31'0 0.0
2018-Jun-19 19:30N 47°18' W 002°31'0 0.0
2018-Jun-19 18:59N 47°18' W 002°31'0 0.0
2018-Jun-19 18:30N 47°18' W 002°31'0 0.0
2018-Jun-19 18:00N 47°18' W 002°31'0 0.0
2018-Jun-19 17:29N 47°18' W 002°31'0 0.0
2018-Jun-19 17:00N 47°18' W 002°31'0 0.0
2018-Jun-19 16:30N 47°18' W 002°31'0 0.2
2018-Jun-19 15:56N 47°18' W 002°31'0 0.1
2018-Jun-19 15:28N 47°18' W 002°31'14 6.5
2018-Jun-19 13:16N 47°10' W 002°48'0 0.6
2018-Jun-19 13:00N 47°10' W 002°48'3 5.7
2018-Jun-19 12:30N 47°07' W 002°49'4 2.2
2018-Jun-19 10:29N 47°03' W 002°50'1 0.8
2018-Jun-19 09:39N 47°02' W 002°51'0 1.0
2018-Jun-19 09:13N 47°02' W 002°52'2 5.3
2018-Jun-19 08:51N 47°03' W 002°49'5 9.0
2018-Jun-19 08:18N 47°04' W 002°42'3 8.8
2018-Jun-19 07:55N 47°05' W 002°37'5 8.9
2018-Jun-19 07:25N 47°05' W 002°31'0 1.2
2018-Jun-19 07:00N 47°05' W 002°30'0 0.3
2018-Jun-19 06:30N 47°05' W 002°30'0 0.6
2018-Jun-19 05:57N 47°05' W 002°30'1 0.4
2018-Jun-19 04:31N 47°05' W 002°29'0 0.7
2018-Jun-19 04:30N 47°05' W 002°29'4 8.5
2018-Jun-19 04:00N 47°09' W 002°31'5 9.1
2018-Jun-19 03:30N 47°14' W 002°32'4 9.0
2018-Jun-19 03:00N 47°18' W 002°33'2 0.8
2018-Jun-19 00:44N 47°18' W 002°31'0 0.0
2018-Jun-19 00:28N 47°18' W 002°31'0 0.0
2018-Jun-18 23:55N 47°18' W 002°31'0 0.0
2018-Jun-18 23:19N 47°18' W 002°31'0 0.0
2018-Jun-18 23:00N 47°18' W 002°31'0 0.0
2018-Jun-18 22:21N 47°18' W 002°31'0 0.0
2018-Jun-18 22:00N 47°18' W 002°31'0 0.0
2018-Jun-18 21:30N 47°18' W 002°31'0 0.0
2018-Jun-18 20:30N 47°18' W 002°31'0 0.0
2018-Jun-18 19:55N 47°18' W 002°31'0 0.0
2018-Jun-18 19:29N 47°18' W 002°31'0 0.0
2018-Jun-18 19:00N 47°18' W 002°31'0 0.0
2018-Jun-18 18:30N 47°18' W 002°31'0 0.0
2018-Jun-18 18:00N 47°18' W 002°31'0 0.0
2018-Jun-18 17:29N 47°18' W 002°31'0 0.0
2018-Jun-18 16:57N 47°18' W 002°31'0 0.0
2018-Jun-18 16:27N 47°18' W 002°31'1 2.2
2018-Jun-18 16:00N 47°19' W 002°32'7 7.4
2018-Jun-18 15:07N 47°12' W 002°33'3 5.3
2018-Jun-18 14:36N 47°09' W 002°32'7 3.0
2018-Jun-18 12:23N 47°11' W 002°42'3 7.7
2018-Jun-18 12:00N 47°13' W 002°45'1 1.0
2018-Jun-18 11:30N 47°13' W 002°46'1 1.1
2018-Jun-18 10:52N 47°13' W 002°46'3 7.0
2018-Jun-18 10:28N 47°10' W 002°47'1 0.9
2018-Jun-18 09:48N 47°10' W 002°48'1 1.7
2018-Jun-18 09:29N 47°09' W 002°49'3 5.8
2018-Jun-18 09:00N 47°07' W 002°49'1 1.9
2018-Jun-18 08:17N 47°05' W 002°48'1 0.8
2018-Jun-18 07:40N 47°05' W 002°49'2 6.5
2018-Jun-18 07:18N 47°03' W 002°50'1 1.3
2018-Jun-18 06:35N 47°04' W 002°50'0 0.9
2018-Jun-18 06:30N 47°04' W 002°50'2 2.2
2018-Jun-18 05:26N 47°02' W 002°51'5 8.9
2018-Jun-18 04:53N 47°06' W 002°46'4 8.6
2018-Jun-18 04:27N 47°09' W 002°43'4 8.5
2018-Jun-18 03:58N 47°12' W 002°40'4 8.5
2018-Jun-18 03:29N 47°15' W 002°36'4 8.8
2018-Jun-18 03:00N 47°19' W 002°32'1 2.0
2018-Jun-18 02:22N 47°18' W 002°31'0 0.0
2018-Jun-18 01:53N 47°18' W 002°31'0 0.0
2018-Jun-17 23:15N 47°18' W 002°31'0 0.0
2018-Jun-17 23:00N 47°18' W 002°31'0 0.0
2018-Jun-17 22:30N 47°18' W 002°31'0 0.0
2018-Jun-17 21:55N 47°18' W 002°31'0 0.0
2018-Jun-17 21:26N 47°18' W 002°31'0 0.0
2018-Jun-17 19:11N 47°18' W 002°31'0 0.0
2018-Jun-17 18:59N 47°18' W 002°31'0 0.0
2018-Jun-17 18:30N 47°18' W 002°31'0 0.0
2018-Jun-17 17:59N 47°18' W 002°31'0 0.0
2018-Jun-17 17:24N 47°18' W 002°31'0 0.0
2018-Jun-17 17:00N 47°18' W 002°31'0 0.0
2018-Jun-17 16:20N 47°18' W 002°31'0 0.0
2018-Jun-17 15:28N 47°18' W 002°31'0 0.0
2018-Jun-17 15:00N 47°18' W 002°31'0 0.0
2018-Jun-17 14:30N 47°18' W 002°31'0 0.0
2018-Jun-17 13:37N 47°18' W 002°31'0 0.0
2018-Jun-17 13:25N 47°18' W 002°31'0 0.0
2018-Jun-17 13:00N 47°18' W 002°31'0 0.0
2018-Jun-17 12:28N 47°18' W 002°31'0 0.0
2018-Jun-17 11:59N 47°18' W 002°31'0 0.0
2018-Jun-17 08:18N 47°18' W 002°31'0 0.0
2018-Jun-17 06:35N 47°18' W 002°31'0 0.0
2018-Jun-17 06:24N 47°18' W 002°31'0 0.0
2018-Jun-17 05:59N 47°18' W 002°31'0 0.0
2018-Jun-17 05:22N 47°18' W 002°31'0 0.0
2018-Jun-17 04:13N 47°18' W 002°31'0 0.0
2018-Jun-17 04:00N 47°18' W 002°31'0 0.0
2018-Jun-17 03:29N 47°18' W 002°31'0 0.0
2018-Jun-17 03:00N 47°18' W 002°31'0 0.0
2018-Jun-17 02:29N 47°18' W 002°31'0 0.0
2018-Jun-17 01:58N 47°18' W 002°31'0 0.0
2018-Jun-17 01:30N 47°18' W 002°31'0 0.0
2018-Jun-17 01:00N 47°18' W 002°31'0 0.0
2018-Jun-17 00:29N 47°18' W 002°31'0 0.0
2018-Jun-17 00:00N 47°18' W 002°31'0 0.0
2018-Jun-16 23:27N 47°18' W 002°31'0 0.0
2018-Jun-16 20:42N 47°18' W 002°31'0 0.0
2018-Jun-16 20:18N 47°18' W 002°31'0 0.0
2018-Jun-16 19:51N 47°18' W 002°31'0 0.0
2018-Jun-16 18:31N 47°18' W 002°31'0 0.0
2018-Jun-16 18:18N 47°18' W 002°31'0 0.0
2018-Jun-16 17:59N 47°18' W 002°31'0 0.0
2018-Jun-16 17:25N 47°18' W 002°31'0 0.0
2018-Jun-16 16:53N 47°18' W 002°31'0 0.0
2018-Jun-16 16:29N 47°18' W 002°31'0 0.0
2018-Jun-16 15:59N 47°18' W 002°31'0 0.0
2018-Jun-16 15:30N 47°18' W 002°31'0 0.0
2018-Jun-16 14:47N 47°18' W 002°31'0 0.0
2018-Jun-16 14:30N 47°18' W 002°31'0 0.0
2018-Jun-16 13:59N 47°18' W 002°31'0 0.0
2018-Jun-16 13:25N 47°18' W 002°31'16 2.2
2018-Jun-16 06:16N 47°08' W 002°49'1 1.8
2018-Jun-16 05:59N 47°08' W 002°49'3 6.5
2018-Jun-16 05:30N 47°11' W 002°46'1 2.9
2018-Jun-16 05:00N 47°12' W 002°47'0 0.9
2018-Jun-16 04:30N 47°13' W 002°46'1 1.6
2018-Jun-16 04:00N 47°13' W 002°45'1 1.9
2018-Jun-16 03:28N 47°14' W 002°44'4 8.1
2018-Jun-16 03:00N 47°15' W 002°39'4 8.9
2018-Jun-16 02:30N 47°18' W 002°34'2 3.6
2018-Jun-16 01:56N 47°18' W 002°31'0 0.0
2018-Jun-16 01:27N 47°18' W 002°31'0 0.0
2018-Jun-16 00:55N 47°18' W 002°31'0 0.0
2018-Jun-16 00:29N 47°18' W 002°31'0 0.0
2018-Jun-15 23:58N 47°18' W 002°31'0 0.0
2018-Jun-15 23:29N 47°18' W 002°31'0 0.0
2018-Jun-15 23:00N 47°18' W 002°31'0 0.0
2018-Jun-15 22:30N 47°18' W 002°31'0 0.0
2018-Jun-15 22:00N 47°18' W 002°31'0 0.0
2018-Jun-15 19:35N 47°18' W 002°31'0 0.0
2018-Jun-15 19:15N 47°18' W 002°31'0 0.0
2018-Jun-15 18:58N 47°18' W 002°31'0 0.0
2018-Jun-15 17:43N 47°18' W 002°31'0 0.0
2018-Jun-15 17:28N 47°18' W 002°31'0 0.0
2018-Jun-15 16:59N 47°18' W 002°31'12 1.5
2018-Jun-15 08:41N 47°12' W 002°47'0 1.2
2018-Jun-15 08:21N 47°12' W 002°46'5 4.6
2018-Jun-15 07:19N 47°08' W 002°49'5 2.2
2018-Jun-15 05:10N 47°03' W 002°50'2 9.4
2018-Jun-15 04:55N 47°05' W 002°48'5 9.2
2018-Jun-15 04:23N 47°09' W 002°44'3 8.9
2018-Jun-15 04:00N 47°12' W 002°41'5 9.2
2018-Jun-15 03:29N 47°16' W 002°37'4 9.3
2018-Jun-15 03:00N 47°19' W 002°32'1 0.9
2018-Jun-15 01:49N 47°18' W 002°31'0 0.0
2018-Jun-15 00:40N 47°18' W 002°31'0 0.0
2018-Jun-15 00:30N 47°18' W 002°31'0 0.0
2018-Jun-15 00:00N 47°18' W 002°31'0 0.0
2018-Jun-14 23:28N 47°18' W 002°31'0 0.0
2018-Jun-14 22:57N 47°18' W 002°31'0 0.0
2018-Jun-14 22:30N 47°18' W 002°31'0 0.0
2018-Jun-14 21:54N 47°18' W 002°31'0 0.0
2018-Jun-14 21:25N 47°18' W 002°31'0 0.0
2018-Jun-14 21:00N 47°18' W 002°31'0 0.0
2018-Jun-14 20:23N 47°18' W 002°31'0 0.0
2018-Jun-14 19:55N 47°18' W 002°31'0 0.0
2018-Jun-14 19:30N 47°18' W 002°31'0 0.0
2018-Jun-14 18:59N 47°18' W 002°31'0 0.0
2018-Jun-14 18:11N 47°18' W 002°31'0 0.0
2018-Jun-14 17:40N 47°18' W 002°31'0 0.0
2018-Jun-14 17:27N 47°18' W 002°31'0 0.0
2018-Jun-14 16:59N 47°18' W 002°31'0 0.0
2018-Jun-14 16:30N 47°18' W 002°31'10 1.3
2018-Jun-14 08:56N 47°11' W 002°41'3 7.5
2018-Jun-14 08:29N 47°13' W 002°45'2 3.4
2018-Jun-14 07:50N 47°15' W 002°45'3 5.5
2018-Jun-14 07:15N 47°12' W 002°47'0 0.4
2018-Jun-14 06:34N 47°12' W 002°46'0 4.3
2018-Jun-14 06:30N 47°12' W 002°46'3 3.8
2018-Jun-14 05:41N 47°10' W 002°49'3 3.2
2018-Jun-14 04:37N 47°06' W 002°49'2 9.0
2018-Jun-14 04:24N 47°08' W 002°47'3 8.7
2018-Jun-14 04:00N 47°10' W 002°44'5 8.6
2018-Jun-14 03:28N 47°14' W 002°39'4 9.3
2018-Jun-14 03:00N 47°17' W 002°35'3 2.2
2018-Jun-14 01:40N 47°18' W 002°31'0 0.0
2018-Jun-14 01:30N 47°18' W 002°31'0 0.0
2018-Jun-14 00:33N 47°18' W 002°31'0 0.0
2018-Jun-14 00:28N 47°18' W 002°31'0 0.0
2018-Jun-13 17:40N 47°18' W 002°31'0 0.0
2018-Jun-13 17:19N 47°18' W 002°31'0 0.0
2018-Jun-13 16:46N 47°18' W 002°31'8 6.7
2018-Jun-13 15:31N 47°10' W 002°37'1 7.6
2018-Jun-13 15:27N 47°10' W 002°36'3 6.9
2018-Jun-13 14:58N 47°09' W 002°31'4 2.0
2018-Jun-13 12:49N 47°10' W 002°37'8 8.6
2018-Jun-13 11:56N 47°09' W 002°49'0 0.2
2018-Jun-13 11:24N 47°09' W 002°49'0 0.1
2018-Jun-13 10:56N 47°09' W 002°49'0 0.1
2018-Jun-13 10:30N 47°09' W 002°49'0 0.5
2018-Jun-13 10:00N 47°09' W 002°49'3 6.3
2018-Jun-13 09:28N 47°12' W 002°46'1 1.1
2018-Jun-13 08:57N 47°12' W 002°47'3 6.0
2018-Jun-13 08:29N 47°15' W 002°45'3 6.7
2018-Jun-13 08:00N 47°17' W 002°42'4 9.0
2018-Jun-13 07:30N 47°19' W 002°36'3 6.5
2018-Jun-13 06:59N 47°18' W 002°31'0 0.0
2018-Jun-13 06:27N 47°18' W 002°31'0 0.0
2018-Jun-13 05:59N 47°18' W 002°31'0 0.0
2018-Jun-13 05:26N 47°18' W 002°31'0 0.0
2018-Jun-13 05:00N 47°18' W 002°31'0 0.0
2018-Jun-13 04:30N 47°18' W 002°31'0 0.0
2018-Jun-13 03:42N 47°18' W 002°31'0 0.0
2018-Jun-13 03:28N 47°18' W 002°31'0 0.0
2018-Jun-13 03:00N 47°18' W 002°31'0 0.2
2018-Jun-13 02:30N 47°18' W 002°31'0 0.0
2018-Jun-13 01:31N 47°18' W 002°31'0 1.0
2018-Jun-13 01:29N 47°18' W 002°31'0 0.0
2018-Jun-13 01:00N 47°18' W 002°31'0 0.0
2018-Jun-13 00:30N 47°18' W 002°31'0 0.0
2018-Jun-12 23:50N 47°18' W 002°31'0 0.0
2018-Jun-12 23:30N 47°18' W 002°31'0 0.0
2018-Jun-12 22:46N 47°18' W 002°31'0 0.0
2018-Jun-12 22:30N 47°18' W 002°31'0 0.0
2018-Jun-12 21:59N 47°18' W 002°31'0 0.0
2018-Jun-12 21:29N 47°18' W 002°31'0 0.0
2018-Jun-12 20:43N 47°18' W 002°31'0 0.0
2018-Jun-12 20:29N 47°18' W 002°31'0 0.0
2018-Jun-12 20:00N 47°18' W 002°31'0 0.0
2018-Jun-12 16:37N 47°18' W 002°31'0 0.0
2018-Jun-12 16:28N 47°18' W 002°31'0 0.0
2018-Jun-12 15:56N 47°18' W 002°31'0 0.0
2018-Jun-12 15:30N 47°18' W 002°31'0 0.0
2018-Jun-12 08:27N 47°18' W 002°31'0 0.0
2018-Jun-12 07:13N 47°18' W 002°31'0 0.0
2018-Jun-12 06:57N 47°18' W 002°31'0 0.0
2018-Jun-12 06:15N 47°18' W 002°31'0 0.0
2018-Jun-12 04:50N 47°18' W 002°31'  
Track history (hours):
 
Tides and Currents Weather Stations Pressure Air Temp Water Temp Dewpoint Dewpoint Depression Visibility Wind Speed Wind Dir Waves Ship Positions

F/V Kab David 3

Last reported at 2018-Jun-21 23:30 UTC. Time now 2018-Jun-21 23:47 UTC.
Position N 47°18' W 002°31'.

Length 15 m.

Type: Other ship. MMSI: 228813000.

Date/timePositionNaut miles runAvg speedWind from/ knotsBaromVisibWave heightAir tempDewpointWater temp
2018-Jun-21 23:30N 47°18' W 002°31'0 0.0
2018-Jun-21 22:57N 47°18' W 002°31'0 0.0
2018-Jun-21 22:30N 47°18' W 002°31'0 0.0
2018-Jun-21 21:59N 47°18' W 002°31'0 0.0
2018-Jun-21 21:30N 47°18' W 002°31'0 0.0
2018-Jun-21 21:00N 47°18' W 002°31'0 0.0
2018-Jun-21 20:30N 47°18' W 002°31'0 0.0
2018-Jun-21 19:59N 47°18' W 002°31'0 0.0
2018-Jun-21 19:30N 47°18' W 002°31'0 0.0
2018-Jun-21 17:54N 47°18' W 002°31'0 0.0
2018-Jun-21 17:27N 47°18' W 002°31'0 0.0
2018-Jun-21 16:59N 47°18' W 002°31'0 0.0
2018-Jun-21 16:29N 47°18' W 002°31'0 0.0
2018-Jun-21 16:00N 47°18' W 002°31'0 0.3
2018-Jun-21 15:30N 47°18' W 002°31'14 5.8
2018-Jun-21 13:03N 47°10' W 002°48'5 2.5
2018-Jun-21 11:11N 47°05' W 002°48'1 2.5
2018-Jun-21 10:40N 47°04' W 002°49'2 4.2
2018-Jun-21 10:07N 47°02' W 002°50'1 1.5
2018-Jun-21 09:34N 47°03' W 002°50'1 9.4
2018-Jun-21 09:26N 47°02' W 002°49'4 9.5
2018-Jun-21 08:59N 47°03' W 002°43'5 9.0
2018-Jun-21 08:29N 47°04' W 002°36'4 7.4
2018-Jun-21 07:59N 47°04' W 002°31'0 0.4
2018-Jun-21 07:30N 47°04' W 002°30'1 1.2
2018-Jun-21 06:53N 47°05' W 002°29'1 0.7
2018-Jun-21 05:58N 47°05' W 002°29'0 0.5
2018-Jun-21 05:30N 47°05' W 002°28'2 1.8
2018-Jun-21 04:40N 47°06' W 002°30'2 8.5
2018-Jun-21 04:27N 47°08' W 002°31'1 2.8
2018-Jun-21 04:00N 47°09' W 002°31'0 0.4
2018-Jun-21 03:30N 47°09' W 002°31'2 4.8
2018-Jun-21 03:00N 47°12' W 002°32'5 8.9
2018-Jun-21 02:30N 47°16' W 002°34'3 5.9
2018-Jun-21 02:00N 47°18' W 002°31'0 0.9
2018-Jun-21 01:30N 47°18' W 002°31'0 0.0
2018-Jun-21 01:00N 47°18' W 002°31'0 0.0
2018-Jun-21 00:30N 47°18' W 002°31'0 0.0
2018-Jun-21 00:00N 47°18' W 002°31'0 0.0
2018-Jun-20 23:30N 47°18' W 002°31'0 0.0
2018-Jun-20 23:00N 47°18' W 002°31'0 0.0
2018-Jun-20 22:30N 47°18' W 002°31'0 0.0
2018-Jun-20 22:00N 47°18' W 002°31'0 0.0
2018-Jun-20 21:28N 47°18' W 002°31'0 0.0
2018-Jun-20 21:00N 47°18' W 002°31'0 0.0
2018-Jun-20 20:30N 47°18' W 002°31'0 0.0
2018-Jun-20 19:59N 47°18' W 002°31'0 0.0
2018-Jun-20 19:30N 47°18' W 002°31'0 0.0
2018-Jun-20 19:00N 47°18' W 002°31'0 0.0
2018-Jun-20 18:30N 47°18' W 002°31'0 0.0
2018-Jun-20 18:00N 47°18' W 002°31'0 0.0
2018-Jun-20 17:30N 47°18' W 002°31'0 0.0
2018-Jun-20 17:00N 47°18' W 002°31'0 0.0
2018-Jun-20 16:30N 47°18' W 002°31'0 0.0
2018-Jun-20 16:00N 47°18' W 002°31'0 0.0
2018-Jun-20 15:30N 47°18' W 002°31'0 0.0
2018-Jun-20 15:00N 47°18' W 002°31'0 0.0
2018-Jun-20 14:30N 47°18' W 002°31'0 0.2
2018-Jun-20 13:59N 47°18' W 002°31'21 5.7
2018-Jun-20 10:11N 47°02' W 002°52'0 0.6
2018-Jun-20 09:51N 47°02' W 002°51'1 0.8
2018-Jun-20 08:51N 47°02' W 002°51'1 1.9
2018-Jun-20 08:26N 47°02' W 002°50'1 2.0
2018-Jun-20 07:48N 47°03' W 002°49'1 2.7
2018-Jun-20 07:27N 47°04' W 002°49'2 3.9
2018-Jun-20 07:00N 47°06' W 002°49'1 1.7
2018-Jun-20 06:28N 47°07' W 002°49'2 4.6
2018-Jun-20 06:00N 47°09' W 002°48'1 1.5
2018-Jun-20 05:30N 47°10' W 002°48'1 1.3
2018-Jun-20 04:57N 47°10' W 002°47'2 4.0
2018-Jun-20 04:30N 47°12' W 002°46'1 1.2
2018-Jun-20 04:00N 47°12' W 002°46'1 1.7
2018-Jun-20 03:18N 47°13' W 002°45'1 2.3
2018-Jun-20 03:00N 47°14' W 002°44'5 9.6
2018-Jun-20 02:30N 47°16' W 002°38'5 9.2
2018-Jun-20 02:00N 47°19' W 002°32'1 2.6
2018-Jun-20 01:30N 47°18' W 002°31'0 0.0
2018-Jun-20 00:59N 47°18' W 002°31'0 0.0
2018-Jun-20 00:28N 47°18' W 002°31'0 0.0
2018-Jun-20 00:00N 47°18' W 002°31'0 0.0
2018-Jun-19 23:29N 47°18' W 002°31'0 0.0
2018-Jun-19 23:00N 47°18' W 002°31'0 0.0
2018-Jun-19 22:30N 47°18' W 002°31'0 0.0
2018-Jun-19 22:00N 47°18' W 002°31'0 0.0
2018-Jun-19 21:30N 47°18' W 002°31'0 0.0
2018-Jun-19 20:59N 47°18' W 002°31'0 0.0
2018-Jun-19 20:30N 47°18' W 002°31'0 0.0
2018-Jun-19 20:00N 47°18' W 002°31'0 0.0
2018-Jun-19 19:30N 47°18' W 002°31'0 0.0
2018-Jun-19 18:59N 47°18' W 002°31'0 0.0
2018-Jun-19 18:30N 47°18' W 002°31'0 0.0
2018-Jun-19 18:00N 47°18' W 002°31'0 0.0
2018-Jun-19 17:29N 47°18' W 002°31'0 0.0
2018-Jun-19 17:00N 47°18' W 002°31'0 0.0
2018-Jun-19 16:30N 47°18' W 002°31'0 0.2
2018-Jun-19 15:56N 47°18' W 002°31'0 0.1
2018-Jun-19 15:28N 47°18' W 002°31'14 6.5
2018-Jun-19 13:16N 47°10' W 002°48'0 0.6
2018-Jun-19 13:00N 47°10' W 002°48'3 5.7
2018-Jun-19 12:30N 47°07' W 002°49'4 2.2
2018-Jun-19 10:29N 47°03' W 002°50'1 0.8
2018-Jun-19 09:39N 47°02' W 002°51'0 1.0
2018-Jun-19 09:13N 47°02' W 002°52'2 5.3
2018-Jun-19 08:51N 47°03' W 002°49'5 9.0
2018-Jun-19 08:18N 47°04' W 002°42'3 8.8
2018-Jun-19 07:55N 47°05' W 002°37'5 8.9
2018-Jun-19 07:25N 47°05' W 002°31'0 1.2
2018-Jun-19 07:00N 47°05' W 002°30'0 0.3
2018-Jun-19 06:30N 47°05' W 002°30'0 0.6
2018-Jun-19 05:57N 47°05' W 002°30'1 0.4
2018-Jun-19 04:31N 47°05' W 002°29'0 0.7
2018-Jun-19 04:30N 47°05' W 002°29'4 8.5
2018-Jun-19 04:00N 47°09' W 002°31'5 9.1
2018-Jun-19 03:30N 47°14' W 002°32'4 9.0
2018-Jun-19 03:00N 47°18' W 002°33'2 0.8
2018-Jun-19 00:44N 47°18' W 002°31'0 0.0
2018-Jun-19 00:28N 47°18' W 002°31'0 0.0
2018-Jun-18 23:55N 47°18' W 002°31'0 0.0
2018-Jun-18 23:19N 47°18' W 002°31'0 0.0
2018-Jun-18 23:00N 47°18' W 002°31'0 0.0
2018-Jun-18 22:21N 47°18' W 002°31'0 0.0
2018-Jun-18 22:00N 47°18' W 002°31'0 0.0
2018-Jun-18 21:30N 47°18' W 002°31'0 0.0
2018-Jun-18 20:30N 47°18' W 002°31'0 0.0
2018-Jun-18 19:55N 47°18' W 002°31'0 0.0
2018-Jun-18 19:29N 47°18' W 002°31'0 0.0
2018-Jun-18 19:00N 47°18' W 002°31'0 0.0
2018-Jun-18 18:30N 47°18' W 002°31'0 0.0
2018-Jun-18 18:00N 47°18' W 002°31'0 0.0
2018-Jun-18 17:29N 47°18' W 002°31'0 0.0
2018-Jun-18 16:57N 47°18' W 002°31'0 0.0
2018-Jun-18 16:27N 47°18' W 002°31'1 2.2
2018-Jun-18 16:00N 47°19' W 002°32'7 7.4
2018-Jun-18 15:07N 47°12' W 002°33'3 5.3
2018-Jun-18 14:36N 47°09' W 002°32'7 3.0
2018-Jun-18 12:23N 47°11' W 002°42'3 7.7
2018-Jun-18 12:00N 47°13' W 002°45'1 1.0
2018-Jun-18 11:30N 47°13' W 002°46'1 1.1
2018-Jun-18 10:52N 47°13' W 002°46'3 7.0
2018-Jun-18 10:28N 47°10' W 002°47'1 0.9
2018-Jun-18 09:48N 47°10' W 002°48'1 1.7
2018-Jun-18 09:29N 47°09' W 002°49'3 5.8
2018-Jun-18 09:00N 47°07' W 002°49'1 1.9
2018-Jun-18 08:17N 47°05' W 002°48'1 0.8
2018-Jun-18 07:40N 47°05' W 002°49'2 6.5
2018-Jun-18 07:18N 47°03' W 002°50'1 1.3
2018-Jun-18 06:35N 47°04' W 002°50'0 0.9
2018-Jun-18 06:30N 47°04' W 002°50'2 2.2
2018-Jun-18 05:26N 47°02' W 002°51'5 8.9
2018-Jun-18 04:53N 47°06' W 002°46'4 8.6
2018-Jun-18 04:27N 47°09' W 002°43'4 8.5
2018-Jun-18 03:58N 47°12' W 002°40'4 8.5
2018-Jun-18 03:29N 47°15' W 002°36'4 8.8
2018-Jun-18 03:00N 47°19' W 002°32'1 2.0
2018-Jun-18 02:22N 47°18' W 002°31'0 0.0
2018-Jun-18 01:53N 47°18' W 002°31'0 0.0
2018-Jun-17 23:15N 47°18' W 002°31'0 0.0
2018-Jun-17 23:00N 47°18' W 002°31'0 0.0
2018-Jun-17 22:30N 47°18' W 002°31'0 0.0
2018-Jun-17 21:55N 47°18' W 002°31'0 0.0
2018-Jun-17 21:26N 47°18' W 002°31'0 0.0
2018-Jun-17 19:11N 47°18' W 002°31'0 0.0
2018-Jun-17 18:59N 47°18' W 002°31'0 0.0
2018-Jun-17 18:30N 47°18' W 002°31'0 0.0
2018-Jun-17 17:59N 47°18' W 002°31'0 0.0
2018-Jun-17 17:24N 47°18' W 002°31'0 0.0
2018-Jun-17 17:00N 47°18' W 002°31'0 0.0
2018-Jun-17 16:20N 47°18' W 002°31'0 0.0
2018-Jun-17 15:28N 47°18' W 002°31'0 0.0
2018-Jun-17 15:00N 47°18' W 002°31'0 0.0
2018-Jun-17 14:30N 47°18' W 002°31'0 0.0
2018-Jun-17 13:37N 47°18' W 002°31'0 0.0
2018-Jun-17 13:25N 47°18' W 002°31'0 0.0
2018-Jun-17 13:00N 47°18' W 002°31'0 0.0
2018-Jun-17 12:28N 47°18' W 002°31'0 0.0
2018-Jun-17 11:59N 47°18' W 002°31'0 0.0
2018-Jun-17 08:18N 47°18' W 002°31'0 0.0
2018-Jun-17 06:35N 47°18' W 002°31'0 0.0
2018-Jun-17 06:24N 47°18' W 002°31'0 0.0
2018-Jun-17 05:59N 47°18' W 002°31'0 0.0
2018-Jun-17 05:22N 47°18' W 002°31'0 0.0
2018-Jun-17 04:13N 47°18' W 002°31'0 0.0
2018-Jun-17 04:00N 47°18' W 002°31'0 0.0
2018-Jun-17 03:29N 47°18' W 002°31'0 0.0
2018-Jun-17 03:00N 47°18' W 002°31'0 0.0
2018-Jun-17 02:29N 47°18' W 002°31'0 0.0
2018-Jun-17 01:58N 47°18' W 002°31'0 0.0
2018-Jun-17 01:30N 47°18' W 002°31'0 0.0
2018-Jun-17 01:00N 47°18' W 002°31'0 0.0
2018-Jun-17 00:29N 47°18' W 002°31'0 0.0
2018-Jun-17 00:00N 47°18' W 002°31'0 0.0
2018-Jun-16 23:27N 47°18' W 002°31'0 0.0
2018-Jun-16 20:42N 47°18' W 002°31'0 0.0
2018-Jun-16 20:18N 47°18' W 002°31'0 0.0
2018-Jun-16 19:51N 47°18' W 002°31'0 0.0
2018-Jun-16 18:31N 47°18' W 002°31'0 0.0
2018-Jun-16 18:18N 47°18' W 002°31'0 0.0
2018-Jun-16 17:59N 47°18' W 002°31'0 0.0
2018-Jun-16 17:25N 47°18' W 002°31'0 0.0
2018-Jun-16 16:53N 47°18' W 002°31'0 0.0
2018-Jun-16 16:29N 47°18' W 002°31'0 0.0
2018-Jun-16 15:59N 47°18' W 002°31'0 0.0
2018-Jun-16 15:30N 47°18' W 002°31'0 0.0
2018-Jun-16 14:47N 47°18' W 002°31'0 0.0
2018-Jun-16 14:30N 47°18' W 002°31'0 0.0
2018-Jun-16 13:59N 47°18' W 002°31'0 0.0
2018-Jun-16 13:25N 47°18' W 002°31'16 2.2
2018-Jun-16 06:16N 47°08' W 002°49'1 1.8
2018-Jun-16 05:59N 47°08' W 002°49'3 6.5
2018-Jun-16 05:30N 47°11' W 002°46'1 2.9
2018-Jun-16 05:00N 47°12' W 002°47'0 0.9
2018-Jun-16 04:30N 47°13' W 002°46'1 1.6
2018-Jun-16 04:00N 47°13' W 002°45'1 1.9
2018-Jun-16 03:28N 47°14' W 002°44'4 8.1
2018-Jun-16 03:00N 47°15' W 002°39'4 8.9
2018-Jun-16 02:30N 47°18' W 002°34'2 3.6
2018-Jun-16 01:56N 47°18' W 002°31'0 0.0
2018-Jun-16 01:27N 47°18' W 002°31'0 0.0
2018-Jun-16 00:55N 47°18' W 002°31'0 0.0
2018-Jun-16 00:29N 47°18' W 002°31'0 0.0
2018-Jun-15 23:58N 47°18' W 002°31'0 0.0
2018-Jun-15 23:29N 47°18' W 002°31'0 0.0
2018-Jun-15 23:00N 47°18' W 002°31'0 0.0
2018-Jun-15 22:30N 47°18' W 002°31'0 0.0
2018-Jun-15 22:00N 47°18' W 002°31'0 0.0
2018-Jun-15 19:35N 47°18' W 002°31'0 0.0
2018-Jun-15 19:15N 47°18' W 002°31'0 0.0
2018-Jun-15 18:58N 47°18' W 002°31'0 0.0
2018-Jun-15 17:43N 47°18' W 002°31'0 0.0
2018-Jun-15 17:28N 47°18' W 002°31'0 0.0
2018-Jun-15 16:59N 47°18' W 002°31'12 1.5
2018-Jun-15 08:41N 47°12' W 002°47'0 1.2
2018-Jun-15 08:21N 47°12' W 002°46'5 4.6
2018-Jun-15 07:19N 47°08' W 002°49'5 2.2
2018-Jun-15 05:10N 47°03' W 002°50'2 9.4
2018-Jun-15 04:55N 47°05' W 002°48'5 9.2
2018-Jun-15 04:23N 47°09' W 002°44'3 8.9
2018-Jun-15 04:00N 47°12' W 002°41'5 9.2
2018-Jun-15 03:29N 47°16' W 002°37'4 9.3
2018-Jun-15 03:00N 47°19' W 002°32'1 0.9
2018-Jun-15 01:49N 47°18' W 002°31'0 0.0
2018-Jun-15 00:40N 47°18' W 002°31'0 0.0
2018-Jun-15 00:30N 47°18' W 002°31'0 0.0
2018-Jun-15 00:00N 47°18' W 002°31'0 0.0
2018-Jun-14 23:28N 47°18' W 002°31'0 0.0
2018-Jun-14 22:57N 47°18' W 002°31'0 0.0
2018-Jun-14 22:30N 47°18' W 002°31'0 0.0
2018-Jun-14 21:54N 47°18' W 002°31'0 0.0
2018-Jun-14 21:25N 47°18' W 002°31'0 0.0
2018-Jun-14 21:00N 47°18' W 002°31'0 0.0
2018-Jun-14 20:23N 47°18' W 002°31'0 0.0
2018-Jun-14 19:55N 47°18' W 002°31'0 0.0
2018-Jun-14 19:30N 47°18' W 002°31'0 0.0
2018-Jun-14 18:59N 47°18' W 002°31'0 0.0
2018-Jun-14 18:11N 47°18' W 002°31'0 0.0
2018-Jun-14 17:40N 47°18' W 002°31'0 0.0
2018-Jun-14 17:27N 47°18' W 002°31'0 0.0
2018-Jun-14 16:59N 47°18' W 002°31'0 0.0
2018-Jun-14 16:30N 47°18' W 002°31'10 1.3
2018-Jun-14 08:56N 47°11' W 002°41'3 7.5
2018-Jun-14 08:29N 47°13' W 002°45'2 3.4
2018-Jun-14 07:50N 47°15' W 002°45'3 5.5
2018-Jun-14 07:15N 47°12' W 002°47'0 0.4
2018-Jun-14 06:34N 47°12' W 002°46'0 4.3
2018-Jun-14 06:30N 47°12' W 002°46'3 3.8
2018-Jun-14 05:41N 47°10' W 002°49'3 3.2
2018-Jun-14 04:37N 47°06' W 002°49'2 9.0
2018-Jun-14 04:24N 47°08' W 002°47'3 8.7
2018-Jun-14 04:00N 47°10' W 002°44'5 8.6
2018-Jun-14 03:28N 47°14' W 002°39'4 9.3
2018-Jun-14 03:00N 47°17' W 002°35'3 2.2
2018-Jun-14 01:40N 47°18' W 002°31'0 0.0
2018-Jun-14 01:30N 47°18' W 002°31'0 0.0
2018-Jun-14 00:33N 47°18' W 002°31'0 0.0
2018-Jun-14 00:28N 47°18' W 002°31'0 0.0
2018-Jun-13 17:40N 47°18' W 002°31'0 0.0
2018-Jun-13 17:19N 47°18' W 002°31'0 0.0
2018-Jun-13 16:46N 47°18' W 002°31'8 6.7
2018-Jun-13 15:31N 47°10' W 002°37'1 7.6
2018-Jun-13 15:27N 47°10' W 002°36'3 6.9
2018-Jun-13 14:58N 47°09' W 002°31'4 2.0
2018-Jun-13 12:49N 47°10' W 002°37'8 8.6
2018-Jun-13 11:56N 47°09' W 002°49'0 0.2
2018-Jun-13 11:24N 47°09' W 002°49'0 0.1
2018-Jun-13 10:56N 47°09' W 002°49'0 0.1
2018-Jun-13 10:30N 47°09' W 002°49'0 0.5
2018-Jun-13 10:00N 47°09' W 002°49'3 6.3
2018-Jun-13 09:28N 47°12' W 002°46'1 1.1
2018-Jun-13 08:57N 47°12' W 002°47'3 6.0
2018-Jun-13 08:29N 47°15' W 002°45'3 6.7
2018-Jun-13 08:00N 47°17' W 002°42'4 9.0
2018-Jun-13 07:30N 47°19' W 002°36'3 6.5
2018-Jun-13 06:59N 47°18' W 002°31'0 0.0
2018-Jun-13 06:27N 47°18' W 002°31'0 0.0
2018-Jun-13 05:59N 47°18' W 002°31'0 0.0
2018-Jun-13 05:26N 47°18' W 002°31'0 0.0
2018-Jun-13 05:00N 47°18' W 002°31'0 0.0
2018-Jun-13 04:30N 47°18' W 002°31'0 0.0
2018-Jun-13 03:42N 47°18' W 002°31'0 0.0
2018-Jun-13 03:28N 47°18' W 002°31'0 0.0
2018-Jun-13 03:00N 47°18' W 002°31'0 0.2
2018-Jun-13 02:30N 47°18' W 002°31'0 0.0
2018-Jun-13 01:31N 47°18' W 002°31'0 1.0
2018-Jun-13 01:29N 47°18' W 002°31'0 0.0
2018-Jun-13 01:00N 47°18' W 002°31'0 0.0
2018-Jun-13 00:30N 47°18' W 002°31'0 0.0
2018-Jun-12 23:50N 47°18' W 002°31'0 0.0
2018-Jun-12 23:30N 47°18' W 002°31'0 0.0
2018-Jun-12 22:46N 47°18' W 002°31'0 0.0
2018-Jun-12 22:30N 47°18' W 002°31'0 0.0
2018-Jun-12 21:59N 47°18' W 002°31'0 0.0
2018-Jun-12 21:29N 47°18' W 002°31'0 0.0
2018-Jun-12 20:43N 47°18' W 002°31'0 0.0
2018-Jun-12 20:29N 47°18' W 002°31'0 0.0
2018-Jun-12 20:00N 47°18' W 002°31'0 0.0
2018-Jun-12 16:37N 47°18' W 002°31'0 0.0
2018-Jun-12 16:28N 47°18' W 002°31'0 0.0
2018-Jun-12 15:56N 47°18' W 002°31'0 0.0
2018-Jun-12 15:30N 47°18' W 002°31'0 0.0
2018-Jun-12 08:27N 47°18' W 002°31'0 0.0
2018-Jun-12 07:13N 47°18' W 002°31'0 0.0
2018-Jun-12 06:57N 47°18' W 002°31'0 0.0
2018-Jun-12 06:15N 47°18' W 002°31'0 0.0
2018-Jun-12 04:50N 47°18' W 002°31'  

Dump ship's entire track history